sensor_id;sensor_type;location;lat;lon;timestamp;P1;durP1;ratioP1;P2;durP2;ratioP2
40717;SDS011;26405;51.850;-2.246;2023-05-13T00:02:12;7.10;;;3.47;;
40717;SDS011;26405;51.850;-2.246;2023-05-13T00:04:37;9.23;;;3.90;;
40717;SDS011;26405;51.850;-2.246;2023-05-13T00:07:03;8.02;;;3.60;;
40717;SDS011;26405;51.850;-2.246;2023-05-13T00:09:29;6.03;;;3.13;;
40717;SDS011;26405;51.850;-2.246;2023-05-13T00:11:54;6.88;;;3.30;;
40717;SDS011;26405;51.850;-2.246;2023-05-13T00:14:19;7.38;;;3.28;;
40717;SDS011;26405;51.850;-2.246;2023-05-13T00:16:44;5.47;;;3.42;;
40717;SDS011;26405;51.850;-2.246;2023-05-13T00:19:10;5.85;;;3.55;;
40717;SDS011;26405;51.850;-2.246;2023-05-13T00:21:35;7.93;;;3.50;;
40717;SDS011;26405;51.850;-2.246;2023-05-13T00:24:01;10.05;;;3.50;;
40717;SDS011;26405;51.850;-2.246;2023-05-13T00:26:26;7.47;;;3.30;;
40717;SDS011;26405;51.850;-2.246;2023-05-13T00:28:51;5.88;;;3.30;;
40717;SDS011;26405;51.850;-2.246;2023-05-13T00:31:16;7.97;;;3.35;;
40717;SDS011;26405;51.850;-2.246;2023-05-13T00:33:42;7.38;;;3.70;;
40717;SDS011;26405;51.850;-2.246;2023-05-13T00:36:07;7.32;;;3.63;;
40717;SDS011;26405;51.850;-2.246;2023-05-13T00:38:34;8.02;;;3.72;;
40717;SDS011;26405;51.850;-2.246;2023-05-13T00:40:59;6.18;;;3.42;;
40717;SDS011;26405;51.850;-2.246;2023-05-13T00:43:25;8.20;;;3.50;;
40717;SDS011;26405;51.850;-2.246;2023-05-13T00:45:50;7.05;;;2.97;;
40717;SDS011;26405;51.850;-2.246;2023-05-13T00:48:15;7.72;;;3.33;;
40717;SDS011;26405;51.850;-2.246;2023-05-13T00:50:41;8.50;;;3.72;;
40717;SDS011;26405;51.850;-2.246;2023-05-13T00:53:08;10.00;;;3.53;;
40717;SDS011;26405;51.850;-2.246;2023-05-13T00:55:33;6.78;;;3.35;;
40717;SDS011;26405;51.850;-2.246;2023-05-13T00:57:59;9.52;;;3.55;;
40717;SDS011;26405;51.850;-2.246;2023-05-13T01:00:24;8.68;;;3.97;;
40717;SDS011;26405;51.850;-2.246;2023-05-13T01:02:58;7.47;;;3.60;;
40717;SDS011;26405;51.850;-2.246;2023-05-13T01:08:01;8.00;;;3.75;;
40717;SDS011;26405;51.850;-2.246;2023-05-13T01:13:09;7.93;;;4.00;;
40717;SDS011;26405;51.850;-2.246;2023-05-13T01:15:37;8.95;;;3.80;;
40717;SDS011;26405;51.850;-2.246;2023-05-13T01:20:29;9.35;;;4.03;;
40717;SDS011;26405;51.850;-2.246;2023-05-13T01:22:55;8.25;;;3.83;;
40717;SDS011;26405;51.850;-2.246;2023-05-13T01:25:21;7.10;;;3.90;;
40717;SDS011;26405;51.850;-2.246;2023-05-13T01:27:46;8.10;;;3.35;;
40717;SDS011;26405;51.850;-2.246;2023-05-13T01:30:12;6.63;;;3.53;;
40717;SDS011;26405;51.850;-2.246;2023-05-13T01:32:40;8.18;;;3.42;;
40717;SDS011;26405;51.850;-2.246;2023-05-13T01:35:06;9.90;;;3.78;;
40717;SDS011;26405;51.850;-2.246;2023-05-13T01:37:32;7.40;;;3.28;;
40717;SDS011;26405;51.850;-2.246;2023-05-13T01:39:57;7.85;;;3.65;;
40717;SDS011;26405;51.850;-2.246;2023-05-13T01:42:23;5.47;;;3.40;;
40717;SDS011;26405;51.850;-2.246;2023-05-13T01:44:50;6.70;;;3.40;;
40717;SDS011;26405;51.850;-2.246;2023-05-13T01:47:15;6.60;;;3.72;;
40717;SDS011;26405;51.850;-2.246;2023-05-13T01:49:40;7.43;;;3.85;;
40717;SDS011;26405;51.850;-2.246;2023-05-13T01:52:06;8.77;;;3.90;;
40717;SDS011;26405;51.850;-2.246;2023-05-13T01:54:31;8.13;;;4.03;;
40717;SDS011;26405;51.850;-2.246;2023-05-13T01:56:56;10.52;;;4.47;;
40717;SDS011;26405;51.850;-2.246;2023-05-13T01:59:22;9.63;;;4.20;;
40717;SDS011;26405;51.850;-2.246;2023-05-13T02:01:47;10.27;;;4.30;;
40717;SDS011;26405;51.850;-2.246;2023-05-13T02:04:12;9.73;;;4.13;;
40717;SDS011;26405;51.850;-2.246;2023-05-13T02:06:37;10.20;;;4.30;;
40717;SDS011;26405;51.850;-2.246;2023-05-13T02:09:03;9.52;;;4.05;;
40717;SDS011;26405;51.850;-2.246;2023-05-13T02:11:28;8.52;;;4.20;;
40717;SDS011;26405;51.850;-2.246;2023-05-13T02:13:53;7.85;;;3.83;;
40717;SDS011;26405;51.850;-2.246;2023-05-13T02:16:18;9.13;;;4.18;;
40717;SDS011;26405;51.850;-2.246;2023-05-13T02:18:44;8.90;;;4.30;;
40717;SDS011;26405;51.850;-2.246;2023-05-13T02:21:09;7.95;;;3.83;;
40717;SDS011;26405;51.850;-2.246;2023-05-13T02:23:35;10.48;;;4.82;;
40717;SDS011;26405;51.850;-2.246;2023-05-13T02:26:00;9.63;;;4.00;;
40717;SDS011;26405;51.850;-2.246;2023-05-13T02:28:25;8.40;;;4.30;;
40717;SDS011;26405;51.850;-2.246;2023-05-13T02:30:51;7.63;;;3.80;;
40717;SDS011;26405;51.850;-2.246;2023-05-13T02:33:16;8.68;;;3.92;;
40717;SDS011;26405;51.850;-2.246;2023-05-13T02:35:42;9.68;;;4.60;;
40717;SDS011;26405;51.850;-2.246;2023-05-13T02:38:10;10.38;;;4.50;;
40717;SDS011;26405;51.850;-2.246;2023-05-13T02:40:35;8.50;;;4.35;;
40717;SDS011;26405;51.850;-2.246;2023-05-13T02:43:01;8.02;;;4.13;;
40717;SDS011;26405;51.850;-2.246;2023-05-13T02:45:26;10.75;;;4.65;;
40717;SDS011;26405;51.850;-2.246;2023-05-13T02:47:52;11.65;;;4.47;;
40717;SDS011;26405;51.850;-2.246;2023-05-13T02:50:17;7.90;;;3.95;;
40717;SDS011;26405;51.850;-2.246;2023-05-13T02:52:43;10.30;;;4.20;;
40717;SDS011;26405;51.850;-2.246;2023-05-13T02:55:08;8.65;;;3.65;;
40717;SDS011;26405;51.850;-2.246;2023-05-13T02:57:33;11.27;;;4.47;;
40717;SDS011;26405;51.850;-2.246;2023-05-13T02:59:59;7.18;;;3.97;;
40717;SDS011;26405;51.850;-2.246;2023-05-13T03:02:25;9.00;;;4.15;;
40717;SDS011;26405;51.850;-2.246;2023-05-13T03:04:51;10.98;;;4.38;;
40717;SDS011;26405;51.850;-2.246;2023-05-13T03:07:18;10.57;;;4.32;;
40717;SDS011;26405;51.850;-2.246;2023-05-13T03:09:44;10.43;;;4.00;;
40717;SDS011;26405;51.850;-2.246;2023-05-13T03:12:09;9.15;;;4.10;;
40717;SDS011;26405;51.850;-2.246;2023-05-13T03:14:34;9.95;;;4.28;;
40717;SDS011;26405;51.850;-2.246;2023-05-13T03:17:01;11.10;;;4.10;;
40717;SDS011;26405;51.850;-2.246;2023-05-13T03:19:27;9.10;;;3.92;;
40717;SDS011;26405;51.850;-2.246;2023-05-13T03:21:52;10.70;;;4.40;;
40717;SDS011;26405;51.850;-2.246;2023-05-13T03:24:17;11.55;;;3.92;;
40717;SDS011;26405;51.850;-2.246;2023-05-13T03:26:42;9.98;;;4.10;;
40717;SDS011;26405;51.850;-2.246;2023-05-13T03:29:08;10.38;;;3.63;;
40717;SDS011;26405;51.850;-2.246;2023-05-13T03:31:33;9.80;;;3.92;;
40717;SDS011;26405;51.850;-2.246;2023-05-13T03:33:59;10.85;;;4.30;;
40717;SDS011;26405;51.850;-2.246;2023-05-13T03:36:24;9.10;;;4.55;;
40717;SDS011;26405;51.850;-2.246;2023-05-13T03:38:49;9.90;;;4.20;;
40717;SDS011;26405;51.850;-2.246;2023-05-13T03:41:15;8.70;;;3.80;;
40717;SDS011;26405;51.850;-2.246;2023-05-13T03:43:41;9.98;;;4.10;;
40717;SDS011;26405;51.850;-2.246;2023-05-13T03:46:07;6.35;;;3.72;;
40717;SDS011;26405;51.850;-2.246;2023-05-13T03:48:32;11.65;;;4.53;;
40717;SDS011;26405;51.850;-2.246;2023-05-13T03:50:57;8.15;;;3.80;;
40717;SDS011;26405;51.850;-2.246;2023-05-13T03:53:22;8.07;;;3.88;;
40717;SDS011;26405;51.850;-2.246;2023-05-13T03:55:48;9.32;;;4.50;;
40717;SDS011;26405;51.850;-2.246;2023-05-13T03:58:14;10.70;;;4.15;;
40717;SDS011;26405;51.850;-2.246;2023-05-13T04:00:39;9.23;;;4.07;;
40717;SDS011;26405;51.850;-2.246;2023-05-13T04:03:05;10.45;;;3.70;;
40717;SDS011;26405;51.850;-2.246;2023-05-13T04:05:31;8.85;;;3.75;;
40717;SDS011;26405;51.850;-2.246;2023-05-13T04:07:56;9.60;;;4.20;;
40717;SDS011;26405;51.850;-2.246;2023-05-13T04:10:21;8.20;;;3.85;;
40717;SDS011;26405;51.850;-2.246;2023-05-13T04:12:46;9.43;;;4.00;;
40717;SDS011;26405;51.850;-2.246;2023-05-13T04:15:12;8.15;;;4.05;;
40717;SDS011;26405;51.850;-2.246;2023-05-13T04:17:37;8.60;;;4.07;;
40717;SDS011;26405;51.850;-2.246;2023-05-13T04:20:02;10.02;;;4.50;;
40717;SDS011;26405;51.850;-2.246;2023-05-13T04:22:28;10.90;;;4.57;;
40717;SDS011;26405;51.850;-2.246;2023-05-13T04:24:53;8.70;;;4.10;;
40717;SDS011;26405;51.850;-2.246;2023-05-13T04:29:45;10.57;;;3.95;;
40717;SDS011;26405;51.850;-2.246;2023-05-13T04:32:10;8.25;;;4.15;;
40717;SDS011;26405;51.850;-2.246;2023-05-13T04:34:39;10.20;;;4.30;;
40717;SDS011;26405;51.850;-2.246;2023-05-13T04:37:05;8.82;;;4.00;;
40717;SDS011;26405;51.850;-2.246;2023-05-13T04:39:30;9.45;;;4.13;;
40717;SDS011;26405;51.850;-2.246;2023-05-13T04:41:55;10.50;;;4.10;;
40717;SDS011;26405;51.850;-2.246;2023-05-13T04:44:20;11.25;;;3.72;;
40717;SDS011;26405;51.850;-2.246;2023-05-13T04:46:46;10.88;;;4.25;;
40717;SDS011;26405;51.850;-2.246;2023-05-13T04:49:11;9.07;;;4.00;;
40717;SDS011;26405;51.850;-2.246;2023-05-13T04:51:36;8.38;;;4.30;;
40717;SDS011;26405;51.850;-2.246;2023-05-13T04:54:02;9.45;;;4.13;;
40717;SDS011;26405;51.850;-2.246;2023-05-13T04:56:27;8.80;;;4.05;;
40717;SDS011;26405;51.850;-2.246;2023-05-13T04:58:52;7.70;;;4.38;;
40717;SDS011;26405;51.850;-2.246;2023-05-13T05:01:18;11.00;;;4.25;;
40717;SDS011;26405;51.850;-2.246;2023-05-13T05:03:43;10.85;;;3.95;;
40717;SDS011;26405;51.850;-2.246;2023-05-13T05:06:08;11.18;;;4.28;;
40717;SDS011;26405;51.850;-2.246;2023-05-13T05:08:33;8.73;;;3.85;;
40717;SDS011;26405;51.850;-2.246;2023-05-13T05:10:59;7.22;;;3.78;;
40717;SDS011;26405;51.850;-2.246;2023-05-13T05:13:25;7.00;;;3.58;;
40717;SDS011;26405;51.850;-2.246;2023-05-13T05:15:50;7.32;;;3.60;;
40717;SDS011;26405;51.850;-2.246;2023-05-13T05:18:15;6.45;;;3.80;;
40717;SDS011;26405;51.850;-2.246;2023-05-13T05:20:41;7.70;;;3.83;;
40717;SDS011;26405;51.850;-2.246;2023-05-13T05:23:06;6.93;;;3.80;;
40717;SDS011;26405;51.850;-2.246;2023-05-13T05:25:32;8.70;;;4.03;;
40717;SDS011;26405;51.850;-2.246;2023-05-13T05:27:58;8.35;;;3.85;;
40717;SDS011;26405;51.850;-2.246;2023-05-13T05:30:23;8.45;;;3.88;;
40717;SDS011;26405;51.850;-2.246;2023-05-13T05:32:48;6.53;;;3.80;;
40717;SDS011;26405;51.850;-2.246;2023-05-13T05:35:14;8.93;;;3.53;;
40717;SDS011;26405;51.850;-2.246;2023-05-13T05:37:40;8.32;;;3.72;;
40717;SDS011;26405;51.850;-2.246;2023-05-13T05:40:06;5.90;;;3.30;;
40717;SDS011;26405;51.850;-2.246;2023-05-13T05:42:31;9.95;;;4.28;;
40717;SDS011;26405;51.850;-2.246;2023-05-13T05:44:57;7.25;;;3.45;;
40717;SDS011;26405;51.850;-2.246;2023-05-13T05:47:22;10.40;;;3.50;;
40717;SDS011;26405;51.850;-2.246;2023-05-13T05:49:47;6.57;;;3.55;;
40717;SDS011;26405;51.850;-2.246;2023-05-13T05:52:12;7.63;;;3.50;;
40717;SDS011;26405;51.850;-2.246;2023-05-13T05:54:38;7.38;;;3.40;;
40717;SDS011;26405;51.850;-2.246;2023-05-13T05:57:03;7.80;;;4.07;;
40717;SDS011;26405;51.850;-2.246;2023-05-13T05:59:29;9.07;;;3.97;;
40717;SDS011;26405;51.850;-2.246;2023-05-13T06:01:54;10.07;;;4.40;;
40717;SDS011;26405;51.850;-2.246;2023-05-13T06:04:19;9.50;;;3.80;;
40717;SDS011;26405;51.850;-2.246;2023-05-13T06:06:44;14.27;;;4.00;;
40717;SDS011;26405;51.850;-2.246;2023-05-13T06:09:10;9.32;;;3.58;;
40717;SDS011;26405;51.850;-2.246;2023-05-13T06:11:35;8.93;;;3.70;;
40717;SDS011;26405;51.850;-2.246;2023-05-13T06:14:00;8.43;;;3.75;;
40717;SDS011;26405;51.850;-2.246;2023-05-13T06:16:25;8.65;;;3.85;;
40717;SDS011;26405;51.850;-2.246;2023-05-13T06:18:51;8.35;;;3.70;;
40717;SDS011;26405;51.850;-2.246;2023-05-13T06:21:16;6.55;;;3.42;;
40717;SDS011;26405;51.850;-2.246;2023-05-13T06:23:41;9.70;;;3.90;;
40717;SDS011;26405;51.850;-2.246;2023-05-13T06:26:07;8.52;;;3.78;;
40717;SDS011;26405;51.850;-2.246;2023-05-13T06:28:32;8.52;;;3.72;;
40717;SDS011;26405;51.850;-2.246;2023-05-13T06:30:57;11.63;;;3.65;;
40717;SDS011;26405;51.850;-2.246;2023-05-13T06:33:22;10.48;;;3.88;;
40717;SDS011;26405;51.850;-2.246;2023-05-13T06:35:48;9.00;;;3.70;;
40717;SDS011;26405;51.850;-2.246;2023-05-13T06:38:15;9.70;;;3.63;;
40717;SDS011;26405;51.850;-2.246;2023-05-13T06:40:42;10.60;;;3.70;;
40717;SDS011;26405;51.850;-2.246;2023-05-13T06:43:07;6.22;;;3.30;;
40717;SDS011;26405;51.850;-2.246;2023-05-13T06:45:32;10.75;;;3.88;;
40717;SDS011;26405;51.850;-2.246;2023-05-13T06:47:58;10.38;;;3.30;;
40717;SDS011;26405;51.850;-2.246;2023-05-13T06:50:23;6.00;;;3.38;;
40717;SDS011;26405;51.850;-2.246;2023-05-13T06:52:48;11.27;;;3.70;;
40717;SDS011;26405;51.850;-2.246;2023-05-13T06:55:13;8.50;;;3.38;;
40717;SDS011;26405;51.850;-2.246;2023-05-13T06:57:40;9.48;;;3.83;;
40717;SDS011;26405;51.850;-2.246;2023-05-13T07:00:07;10.80;;;3.45;;
40717;SDS011;26405;51.850;-2.246;2023-05-13T07:02:32;9.07;;;3.72;;
40717;SDS011;26405;51.850;-2.246;2023-05-13T07:04:58;8.95;;;3.63;;
40717;SDS011;26405;51.850;-2.246;2023-05-13T07:07:23;12.52;;;3.78;;
40717;SDS011;26405;51.850;-2.246;2023-05-13T07:09:48;9.52;;;3.38;;
40717;SDS011;26405;51.850;-2.246;2023-05-13T07:12:13;8.13;;;3.78;;
40717;SDS011;26405;51.850;-2.246;2023-05-13T07:14:39;8.50;;;3.53;;
40717;SDS011;26405;51.850;-2.246;2023-05-13T07:17:04;7.28;;;3.30;;
40717;SDS011;26405;51.850;-2.246;2023-05-13T07:19:29;8.80;;;3.55;;
40717;SDS011;26405;51.850;-2.246;2023-05-13T07:21:55;10.30;;;3.58;;
40717;SDS011;26405;51.850;-2.246;2023-05-13T07:24:20;7.75;;;3.42;;
40717;SDS011;26405;51.850;-2.246;2023-05-13T07:26:46;9.35;;;3.53;;
40717;SDS011;26405;51.850;-2.246;2023-05-13T07:29:11;8.25;;;3.60;;
40717;SDS011;26405;51.850;-2.246;2023-05-13T07:31:36;8.88;;;3.92;;
40717;SDS011;26405;51.850;-2.246;2023-05-13T07:34:02;9.18;;;4.05;;
40717;SDS011;26405;51.850;-2.246;2023-05-13T07:36:27;10.85;;;4.35;;
40717;SDS011;26405;51.850;-2.246;2023-05-13T07:38:53;8.88;;;4.10;;
40717;SDS011;26405;51.850;-2.246;2023-05-13T07:41:18;9.07;;;3.90;;
40717;SDS011;26405;51.850;-2.246;2023-05-13T07:43:43;8.25;;;4.40;;
40717;SDS011;26405;51.850;-2.246;2023-05-13T07:46:08;7.88;;;4.35;;
40717;SDS011;26405;51.850;-2.246;2023-05-13T07:48:34;10.32;;;4.60;;
40717;SDS011;26405;51.850;-2.246;2023-05-13T07:50:59;10.90;;;4.53;;
40717;SDS011;26405;51.850;-2.246;2023-05-13T07:53:24;9.65;;;4.60;;
40717;SDS011;26405;51.850;-2.246;2023-05-13T07:55:50;11.55;;;4.22;;
40717;SDS011;26405;51.850;-2.246;2023-05-13T07:58:15;9.45;;;4.18;;
40717;SDS011;26405;51.850;-2.246;2023-05-13T08:03:07;8.17;;;3.90;;
40717;SDS011;26405;51.850;-2.246;2023-05-13T08:05:32;8.00;;;4.00;;
40717;SDS011;26405;51.850;-2.246;2023-05-13T08:07:58;10.20;;;4.10;;
40717;SDS011;26405;51.850;-2.246;2023-05-13T08:10:23;9.98;;;4.30;;
40717;SDS011;26405;51.850;-2.246;2023-05-13T08:12:48;10.50;;;4.50;;
40717;SDS011;26405;51.850;-2.246;2023-05-13T08:15:18;9.93;;;4.50;;
40717;SDS011;26405;51.850;-2.246;2023-05-13T08:17:45;11.00;;;4.50;;
40717;SDS011;26405;51.850;-2.246;2023-05-13T08:20:11;9.00;;;4.20;;
40717;SDS011;26405;51.850;-2.246;2023-05-13T08:22:36;7.97;;;4.38;;
40717;SDS011;26405;51.850;-2.246;2023-05-13T08:25:01;9.20;;;4.28;;
40717;SDS011;26405;51.850;-2.246;2023-05-13T08:27:27;8.90;;;4.53;;
40717;SDS011;26405;51.850;-2.246;2023-05-13T08:29:52;9.85;;;4.10;;
40717;SDS011;26405;51.850;-2.246;2023-05-13T08:32:18;9.85;;;4.07;;
40717;SDS011;26405;51.850;-2.246;2023-05-13T08:34:43;11.70;;;4.53;;
40717;SDS011;26405;51.850;-2.246;2023-05-13T08:37:08;9.90;;;3.83;;
40717;SDS011;26405;51.850;-2.246;2023-05-13T08:39:34;9.98;;;4.32;;
40717;SDS011;26405;51.850;-2.246;2023-05-13T08:41:59;10.65;;;3.83;;
40717;SDS011;26405;51.850;-2.246;2023-05-13T08:44:26;8.27;;;3.70;;
40717;SDS011;26405;51.850;-2.246;2023-05-13T08:46:58;7.25;;;3.70;;
40717;SDS011;26405;51.850;-2.246;2023-05-13T08:49:24;10.18;;;4.00;;
40717;SDS011;26405;51.850;-2.246;2023-05-13T08:51:49;7.90;;;3.90;;
40717;SDS011;26405;51.850;-2.246;2023-05-13T08:54:15;8.23;;;3.70;;
40717;SDS011;26405;51.850;-2.246;2023-05-13T08:56:41;9.15;;;4.03;;
40717;SDS011;26405;51.850;-2.246;2023-05-13T08:59:06;9.48;;;3.97;;
40717;SDS011;26405;51.850;-2.246;2023-05-13T09:01:32;10.02;;;3.90;;
40717;SDS011;26405;51.850;-2.246;2023-05-13T09:03:58;8.82;;;4.13;;
40717;SDS011;26405;51.850;-2.246;2023-05-13T09:06:25;10.98;;;4.13;;
40717;SDS011;26405;51.850;-2.246;2023-05-13T09:08:50;9.30;;;3.83;;
40717;SDS011;26405;51.850;-2.246;2023-05-13T09:11:16;10.35;;;4.15;;
40717;SDS011;26405;51.850;-2.246;2023-05-13T09:13:42;13.80;;;4.13;;
40717;SDS011;26405;51.850;-2.246;2023-05-13T09:16:08;10.10;;;3.90;;
40717;SDS011;26405;51.850;-2.246;2023-05-13T09:18:34;11.15;;;4.05;;
40717;SDS011;26405;51.850;-2.246;2023-05-13T09:23:44;9.18;;;3.63;;
40717;SDS011;26405;51.850;-2.246;2023-05-13T09:26:24;12.57;;;4.53;;
40717;SDS011;26405;51.850;-2.246;2023-05-13T09:28:56;10.30;;;4.10;;
40717;SDS011;26405;51.850;-2.246;2023-05-13T09:31:35;11.70;;;4.43;;
40717;SDS011;26405;51.850;-2.246;2023-05-13T09:34:01;10.57;;;4.25;;
40717;SDS011;26405;51.850;-2.246;2023-05-13T09:36:26;9.85;;;3.90;;
40717;SDS011;26405;51.850;-2.246;2023-05-13T09:38:56;11.48;;;4.20;;
40717;SDS011;26405;51.850;-2.246;2023-05-13T09:41:32;10.05;;;3.97;;
40717;SDS011;26405;51.850;-2.246;2023-05-13T09:44:00;10.38;;;3.83;;
40717;SDS011;26405;51.850;-2.246;2023-05-13T09:46:29;13.70;;;3.78;;
40717;SDS011;26405;51.850;-2.246;2023-05-13T09:49:03;11.23;;;4.22;;
40717;SDS011;26405;51.850;-2.246;2023-05-13T09:51:32;9.38;;;3.50;;
40717;SDS011;26405;51.850;-2.246;2023-05-13T09:54:05;10.65;;;3.60;;
40717;SDS011;26405;51.850;-2.246;2023-05-13T09:56:33;7.88;;;3.25;;
40717;SDS011;26405;51.850;-2.246;2023-05-13T09:59:04;9.00;;;3.65;;
40717;SDS011;26405;51.850;-2.246;2023-05-13T10:01:29;6.57;;;3.20;;
40717;SDS011;26405;51.850;-2.246;2023-05-13T10:03:55;7.43;;;3.40;;
40717;SDS011;26405;51.850;-2.246;2023-05-13T10:06:24;7.57;;;3.30;;
40717;SDS011;26405;51.850;-2.246;2023-05-13T10:08:50;9.02;;;3.30;;
40717;SDS011;26405;51.850;-2.246;2023-05-13T10:11:17;6.13;;;3.40;;
40717;SDS011;26405;51.850;-2.246;2023-05-13T10:13:42;6.95;;;3.53;;
40717;SDS011;26405;51.850;-2.246;2023-05-13T10:16:10;7.80;;;3.65;;
40717;SDS011;26405;51.850;-2.246;2023-05-13T10:18:35;7.68;;;3.47;;
40717;SDS011;26405;51.850;-2.246;2023-05-13T10:21:01;6.73;;;3.20;;
40717;SDS011;26405;51.850;-2.246;2023-05-13T10:23:27;8.65;;;3.50;;
40717;SDS011;26405;51.850;-2.246;2023-05-13T10:25:53;9.55;;;3.38;;
40717;SDS011;26405;51.850;-2.246;2023-05-13T10:28:19;6.40;;;3.25;;
40717;SDS011;26405;51.850;-2.246;2023-05-13T10:30:45;7.30;;;2.90;;
40717;SDS011;26405;51.850;-2.246;2023-05-13T10:33:12;7.22;;;3.38;;
40717;SDS011;26405;51.850;-2.246;2023-05-13T10:35:39;7.68;;;3.50;;
40717;SDS011;26405;51.850;-2.246;2023-05-13T10:43:09;7.85;;;3.33;;
40717;SDS011;26405;51.850;-2.246;2023-05-13T10:45:35;8.27;;;3.40;;
40717;SDS011;26405;51.850;-2.246;2023-05-13T10:48:07;7.80;;;3.43;;
40717;SDS011;26405;51.850;-2.246;2023-05-13T10:50:35;8.48;;;3.50;;
40717;SDS011;26405;51.850;-2.246;2023-05-13T10:53:00;7.90;;;3.92;;
40717;SDS011;26405;51.850;-2.246;2023-05-13T10:55:27;10.15;;;3.47;;
40717;SDS011;26405;51.850;-2.246;2023-05-13T10:58:08;10.02;;;3.70;;
40717;SDS011;26405;51.850;-2.246;2023-05-13T11:00:35;8.20;;;3.70;;
40717;SDS011;26405;51.850;-2.246;2023-05-13T11:03:08;10.93;;;3.85;;
40717;SDS011;26405;51.850;-2.246;2023-05-13T11:05:33;9.93;;;4.05;;
40717;SDS011;26405;51.850;-2.246;2023-05-13T11:07:58;8.90;;;3.77;;
40717;SDS011;26405;51.850;-2.246;2023-05-13T11:10:27;9.10;;;3.80;;
40717;SDS011;26405;51.850;-2.246;2023-05-13T11:13:08;8.57;;;3.95;;
40717;SDS011;26405;51.850;-2.246;2023-05-13T11:18:10;7.43;;;3.70;;
40717;SDS011;26405;51.850;-2.246;2023-05-13T11:20:36;8.60;;;3.55;;
40717;SDS011;26405;51.850;-2.246;2023-05-13T11:23:01;6.97;;;3.60;;
40717;SDS011;26405;51.850;-2.246;2023-05-13T11:25:26;7.68;;;3.88;;
40717;SDS011;26405;51.850;-2.246;2023-05-13T11:27:52;8.07;;;3.87;;
40717;SDS011;26405;51.850;-2.246;2023-05-13T11:30:26;9.63;;;3.67;;
40717;SDS011;26405;51.850;-2.246;2023-05-13T11:32:53;5.57;;;3.72;;
40717;SDS011;26405;51.850;-2.246;2023-05-13T11:35:26;6.65;;;3.70;;
40717;SDS011;26405;51.850;-2.246;2023-05-13T11:37:55;11.68;;;3.72;;
40717;SDS011;26405;51.850;-2.246;2023-05-13T11:40:21;6.63;;;3.77;;
40717;SDS011;26405;51.850;-2.246;2023-05-13T11:42:47;7.35;;;3.85;;
40717;SDS011;26405;51.850;-2.246;2023-05-13T11:45:12;6.90;;;3.77;;
40717;SDS011;26405;51.850;-2.246;2023-05-13T11:47:38;6.63;;;3.60;;
40717;SDS011;26405;51.850;-2.246;2023-05-13T11:50:15;9.33;;;3.77;;
40717;SDS011;26405;51.850;-2.246;2023-05-13T11:52:41;7.43;;;3.75;;
40717;SDS011;26405;51.850;-2.246;2023-05-13T11:55:06;11.47;;;3.90;;
40717;SDS011;26405;51.850;-2.246;2023-05-13T11:57:32;9.13;;;4.00;;
40717;SDS011;26405;51.850;-2.246;2023-05-13T11:59:59;6.40;;;3.40;;
40717;SDS011;26405;51.850;-2.246;2023-05-13T12:02:25;6.82;;;3.58;;
40717;SDS011;26405;51.850;-2.246;2023-05-13T12:04:51;9.77;;;4.10;;
40717;SDS011;26405;51.850;-2.246;2023-05-13T12:07:20;11.83;;;4.23;;
40717;SDS011;26405;51.850;-2.246;2023-05-13T12:09:46;8.80;;;3.20;;
40717;SDS011;26405;51.850;-2.246;2023-05-13T12:12:11;9.67;;;4.53;;
40717;SDS011;26405;51.850;-2.246;2023-05-13T12:14:37;8.83;;;4.00;;
40717;SDS011;26405;51.850;-2.246;2023-05-13T12:17:02;7.83;;;3.70;;
40717;SDS011;26405;51.850;-2.246;2023-05-13T12:19:27;9.63;;;4.17;;
40717;SDS011;26405;51.850;-2.246;2023-05-13T12:21:53;7.47;;;3.97;;
40717;SDS011;26405;51.850;-2.246;2023-05-13T12:24:21;10.20;;;3.80;;
40717;SDS011;26405;51.850;-2.246;2023-05-13T12:26:47;7.60;;;3.53;;
40717;SDS011;26405;51.850;-2.246;2023-05-13T12:29:12;8.67;;;4.17;;
40717;SDS011;26405;51.850;-2.246;2023-05-13T12:31:39;7.40;;;3.93;;
40717;SDS011;26405;51.850;-2.246;2023-05-13T12:34:04;7.70;;;3.88;;
40717;SDS011;26405;51.850;-2.246;2023-05-13T12:36:30;9.43;;;4.00;;
40717;SDS011;26405;51.850;-2.246;2023-05-13T12:39:03;8.35;;;4.00;;
40717;SDS011;26405;51.850;-2.246;2023-05-13T12:41:32;7.95;;;3.70;;
40717;SDS011;26405;51.850;-2.246;2023-05-13T12:43:59;7.32;;;3.72;;
40717;SDS011;26405;51.850;-2.246;2023-05-13T12:46:24;6.87;;;4.00;;
40717;SDS011;26405;51.850;-2.246;2023-05-13T12:48:57;7.90;;;4.07;;
40717;SDS011;26405;51.850;-2.246;2023-05-13T12:51:22;9.95;;;4.20;;
40717;SDS011;26405;51.850;-2.246;2023-05-13T12:53:48;8.83;;;3.90;;
40717;SDS011;26405;51.850;-2.246;2023-05-13T12:56:13;9.23;;;3.63;;
40717;SDS011;26405;51.850;-2.246;2023-05-13T12:58:38;8.77;;;4.03;;
40717;SDS011;26405;51.850;-2.246;2023-05-13T13:01:04;10.43;;;4.90;;
40717;SDS011;26405;51.850;-2.246;2023-05-13T13:03:29;10.50;;;4.93;;
40717;SDS011;26405;51.850;-2.246;2023-05-13T13:05:54;11.40;;;5.53;;
40717;SDS011;26405;51.850;-2.246;2023-05-13T13:08:21;10.07;;;5.00;;
40717;SDS011;26405;51.850;-2.246;2023-05-13T13:10:47;10.27;;;4.60;;
40717;SDS011;26405;51.850;-2.246;2023-05-13T13:13:12;10.40;;;4.57;;
40717;SDS011;26405;51.850;-2.246;2023-05-13T13:15:37;8.53;;;4.63;;
40717;SDS011;26405;51.850;-2.246;2023-05-13T13:18:03;7.73;;;4.50;;
40717;SDS011;26405;51.850;-2.246;2023-05-13T13:20:28;9.43;;;4.37;;
40717;SDS011;26405;51.850;-2.246;2023-05-13T13:22:53;11.00;;;4.87;;
40717;SDS011;26405;51.850;-2.246;2023-05-13T13:25:19;9.53;;;5.00;;
40717;SDS011;26405;51.850;-2.246;2023-05-13T13:27:44;10.33;;;4.10;;
40717;SDS011;26405;51.850;-2.246;2023-05-13T13:30:10;8.90;;;4.60;;
40717;SDS011;26405;51.850;-2.246;2023-05-13T13:32:35;8.50;;;4.50;;
40717;SDS011;26405;51.850;-2.246;2023-05-13T13:35:00;15.57;;;6.97;;
40717;SDS011;26405;51.850;-2.246;2023-05-13T13:37:27;20.85;;;5.32;;
40717;SDS011;26405;51.850;-2.246;2023-05-13T13:39:53;8.67;;;4.57;;
40717;SDS011;26405;51.850;-2.246;2023-05-13T13:42:18;10.20;;;5.07;;
40717;SDS011;26405;51.850;-2.246;2023-05-13T13:44:43;9.50;;;4.60;;
40717;SDS011;26405;51.850;-2.246;2023-05-13T13:47:09;12.27;;;4.90;;
40717;SDS011;26405;51.850;-2.246;2023-05-13T13:49:34;9.63;;;4.90;;
40717;SDS011;26405;51.850;-2.246;2023-05-13T13:51:59;12.20;;;4.77;;
40717;SDS011;26405;51.850;-2.246;2023-05-13T13:54:25;12.37;;;4.83;;
40717;SDS011;26405;51.850;-2.246;2023-05-13T13:56:50;9.80;;;4.63;;
40717;SDS011;26405;51.850;-2.246;2023-05-13T13:59:15;9.23;;;4.63;;
40717;SDS011;26405;51.850;-2.246;2023-05-13T14:01:43;12.98;;;4.70;;
40717;SDS011;26405;51.850;-2.246;2023-05-13T14:04:12;10.13;;;4.97;;
40717;SDS011;26405;51.850;-2.246;2023-05-13T14:06:37;10.15;;;6.00;;
40717;SDS011;26405;51.850;-2.246;2023-05-13T14:09:03;10.53;;;5.50;;
40717;SDS011;26405;51.850;-2.246;2023-05-13T14:11:29;14.05;;;5.15;;
40717;SDS011;26405;51.850;-2.246;2023-05-13T14:13:54;10.03;;;4.63;;
40717;SDS011;26405;51.850;-2.246;2023-05-13T14:16:20;11.40;;;5.47;;
40717;SDS011;26405;51.850;-2.246;2023-05-13T14:18:45;9.53;;;4.80;;
40717;SDS011;26405;51.850;-2.246;2023-05-13T14:21:10;9.53;;;4.50;;
40717;SDS011;26405;51.850;-2.246;2023-05-13T14:23:36;9.50;;;4.67;;
40717;SDS011;26405;51.850;-2.246;2023-05-13T14:28:27;9.93;;;4.73;;
40717;SDS011;26405;51.850;-2.246;2023-05-13T14:30:52;9.47;;;4.47;;
40717;SDS011;26405;51.850;-2.246;2023-05-13T14:33:18;10.83;;;4.80;;
40717;SDS011;26405;51.850;-2.246;2023-05-13T14:35:43;11.13;;;4.73;;
40717;SDS011;26405;51.850;-2.246;2023-05-13T14:38:08;11.87;;;5.03;;
40717;SDS011;26405;51.850;-2.246;2023-05-13T14:40:34;11.17;;;5.20;;
40717;SDS011;26405;51.850;-2.246;2023-05-13T14:42:59;9.17;;;5.00;;
40717;SDS011;26405;51.850;-2.246;2023-05-13T14:45:25;8.67;;;5.03;;
40717;SDS011;26405;51.850;-2.246;2023-05-13T14:47:50;9.60;;;4.80;;
40717;SDS011;26405;51.850;-2.246;2023-05-13T14:50:17;11.52;;;5.18;;